sensor_id;sensor_type;location;lat;lon;timestamp;temperature;humidity
19050;DHT22;9657;45.940;12.840;2023-06-22T00:02:21;30.80;58.60
19050;DHT22;9657;45.940;12.840;2023-06-22T00:04:48;30.80;58.60
19050;DHT22;9657;45.940;12.840;2023-06-22T00:07:15;30.80;58.60
19050;DHT22;9657;45.940;12.840;2023-06-22T00:09:43;30.80;58.60
19050;DHT22;9657;45.940;12.840;2023-06-22T00:12:10;30.80;58.70
19050;DHT22;9657;45.940;12.840;2023-06-22T00:14:38;30.80;58.70
19050;DHT22;9657;45.940;12.840;2023-06-22T00:17:05;30.80;58.70
19050;DHT22;9657;45.940;12.840;2023-06-22T00:19:32;30.80;58.70
19050;DHT22;9657;45.940;12.840;2023-06-22T00:22:01;30.80;58.70
19050;DHT22;9657;45.940;12.840;2023-06-22T00:24:29;30.80;58.80
19050;DHT22;9657;45.940;12.840;2023-06-22T00:26:57;30.70;58.70
19050;DHT22;9657;45.940;12.840;2023-06-22T00:29:24;30.80;58.80
19050;DHT22;9657;45.940;12.840;2023-06-22T00:31:51;30.70;58.80
19050;DHT22;9657;45.940;12.840;2023-06-22T00:34:18;30.70;58.80
19050;DHT22;9657;45.940;12.840;2023-06-22T00:36:45;30.70;58.80
19050;DHT22;9657;45.940;12.840;2023-06-22T00:39:13;30.70;58.80
19050;DHT22;9657;45.940;12.840;2023-06-22T00:41:40;30.70;58.80
19050;DHT22;9657;45.940;12.840;2023-06-22T00:44:08;30.70;58.90
19050;DHT22;9657;45.940;12.840;2023-06-22T00:46:35;30.70;58.90
19050;DHT22;9657;45.940;12.840;2023-06-22T00:49:02;30.70;58.90
19050;DHT22;9657;45.940;12.840;2023-06-22T00:51:31;30.70;58.90
19050;DHT22;9657;45.940;12.840;2023-06-22T00:53:58;30.70;58.90
19050;DHT22;9657;45.940;12.840;2023-06-22T00:56:26;30.70;58.90
19050;DHT22;9657;45.940;12.840;2023-06-22T00:58:55;30.70;58.90
19050;DHT22;9657;45.940;12.840;2023-06-22T01:04:00;30.70;58.90
19050;DHT22;9657;45.940;12.840;2023-06-22T01:06:32;30.70;59.00
19050;DHT22;9657;45.940;12.840;2023-06-22T01:09:08;30.70;59.00
19050;DHT22;9657;45.940;12.840;2023-06-22T01:11:44;30.70;59.00
19050;DHT22;9657;45.940;12.840;2023-06-22T01:14:15;30.70;59.00
19050;DHT22;9657;45.940;12.840;2023-06-22T01:16:44;30.70;59.00
19050;DHT22;9657;45.940;12.840;2023-06-22T01:19:25;30.70;59.10
19050;DHT22;9657;45.940;12.840;2023-06-22T01:21:55;30.70;59.10
19050;DHT22;9657;45.940;12.840;2023-06-22T01:24:27;30.70;59.10
19050;DHT22;9657;45.940;12.840;2023-06-22T01:27:05;30.70;59.10
19050;DHT22;9657;45.940;12.840;2023-06-22T01:29:38;30.70;59.10
19050;DHT22;9657;45.940;12.840;2023-06-22T01:32:06;30.70;59.10
19050;DHT22;9657;45.940;12.840;2023-06-22T01:34:34;30.70;59.10
19050;DHT22;9657;45.940;12.840;2023-06-22T01:37:02;30.70;59.10
19050;DHT22;9657;45.940;12.840;2023-06-22T01:39:30;30.70;59.10
19050;DHT22;9657;45.940;12.840;2023-06-22T01:41:58;30.70;59.10
19050;DHT22;9657;45.940;12.840;2023-06-22T01:44:26;30.70;59.10
19050;DHT22;9657;45.940;12.840;2023-06-22T01:46:55;30.70;59.20
19050;DHT22;9657;45.940;12.840;2023-06-22T01:49:23;30.60;59.10
19050;DHT22;9657;45.940;12.840;2023-06-22T01:51:50;30.70;59.10
19050;DHT22;9657;45.940;12.840;2023-06-22T01:54:17;30.60;59.10
19050;DHT22;9657;45.940;12.840;2023-06-22T01:56:44;30.60;59.10
19050;DHT22;9657;45.940;12.840;2023-06-22T01:59:15;30.60;59.10
19050;DHT22;9657;45.940;12.840;2023-06-22T02:01:52;30.60;59.10
19050;DHT22;9657;45.940;12.840;2023-06-22T02:04:27;30.60;59.20
19050;DHT22;9657;45.940;12.840;2023-06-22T02:06:58;30.60;59.20
19050;DHT22;9657;45.940;12.840;2023-06-22T02:09:29;30.60;59.20
19050;DHT22;9657;45.940;12.840;2023-06-22T02:11:57;30.60;59.20
19050;DHT22;9657;45.940;12.840;2023-06-22T02:14:27;30.60;59.20
19050;DHT22;9657;45.940;12.840;2023-06-22T02:16:55;30.60;59.20
19050;DHT22;9657;45.940;12.840;2023-06-22T02:19:27;30.60;59.20
19050;DHT22;9657;45.940;12.840;2023-06-22T02:21:58;30.60;59.20
19050;DHT22;9657;45.940;12.840;2023-06-22T02:24:25;30.60;59.30
19050;DHT22;9657;45.940;12.840;2023-06-22T02:26:52;30.60;59.30
19050;DHT22;9657;45.940;12.840;2023-06-22T02:29:19;30.60;59.30
19050;DHT22;9657;45.940;12.840;2023-06-22T02:31:46;30.60;59.30
19050;DHT22;9657;45.940;12.840;2023-06-22T02:34:13;30.60;59.30
19050;DHT22;9657;45.940;12.840;2023-06-22T02:36:45;30.50;59.20
19050;DHT22;9657;45.940;12.840;2023-06-22T02:39:17;30.50;59.20
19050;DHT22;9657;45.940;12.840;2023-06-22T02:41:44;30.60;59.30
19050;DHT22;9657;45.940;12.840;2023-06-22T02:44:11;30.60;59.40
19050;DHT22;9657;45.940;12.840;2023-06-22T02:46:38;30.50;59.20
19050;DHT22;9657;45.940;12.840;2023-06-22T02:49:05;30.50;59.30
19050;DHT22;9657;45.940;12.840;2023-06-22T02:51:33;30.50;59.30
19050;DHT22;9657;45.940;12.840;2023-06-22T02:54:02;30.50;59.30
19050;DHT22;9657;45.940;12.840;2023-06-22T02:56:29;30.50;59.30
19050;DHT22;9657;45.940;12.840;2023-06-22T02:58:57;30.50;59.30
19050;DHT22;9657;45.940;12.840;2023-06-22T03:01:26;30.50;59.40
19050;DHT22;9657;45.940;12.840;2023-06-22T03:03:53;30.50;59.30
19050;DHT22;9657;45.940;12.840;2023-06-22T03:06:21;30.50;59.40
19050;DHT22;9657;45.940;12.840;2023-06-22T03:08:49;30.50;59.40
19050;DHT22;9657;45.940;12.840;2023-06-22T03:11:17;30.50;59.40
19050;DHT22;9657;45.940;12.840;2023-06-22T03:13:44;30.50;59.40
19050;DHT22;9657;45.940;12.840;2023-06-22T03:16:12;30.50;59.40
19050;DHT22;9657;45.940;12.840;2023-06-22T03:18:39;30.50;59.40
19050;DHT22;9657;45.940;12.840;2023-06-22T03:21:06;30.50;59.40
19050;DHT22;9657;45.940;12.840;2023-06-22T03:23:33;30.50;59.50
19050;DHT22;9657;45.940;12.840;2023-06-22T03:26:00;30.50;59.50
19050;DHT22;9657;45.940;12.840;2023-06-22T03:28:29;30.50;59.40
19050;DHT22;9657;45.940;12.840;2023-06-22T03:30:57;30.50;59.50
19050;DHT22;9657;45.940;12.840;2023-06-22T03:33:24;30.50;59.50
19050;DHT22;9657;45.940;12.840;2023-06-22T03:35:51;30.50;59.50
19050;DHT22;9657;45.940;12.840;2023-06-22T03:38:19;30.50;59.50
19050;DHT22;9657;45.940;12.840;2023-06-22T03:40:46;30.50;59.60
19050;DHT22;9657;45.940;12.840;2023-06-22T03:43:13;30.50;59.50
19050;DHT22;9657;45.940;12.840;2023-06-22T03:45:42;30.50;59.50
19050;DHT22;9657;45.940;12.840;2023-06-22T03:48:10;30.50;59.50
19050;DHT22;9657;45.940;12.840;2023-06-22T03:50:37;30.50;59.60
19050;DHT22;9657;45.940;12.840;2023-06-22T03:53:05;30.40;59.50
19050;DHT22;9657;45.940;12.840;2023-06-22T03:55:33;30.50;59.60
19050;DHT22;9657;45.940;12.840;2023-06-22T03:58:00;30.50;59.60
19050;DHT22;9657;45.940;12.840;2023-06-22T04:00:31;30.40;59.50
19050;DHT22;9657;45.940;12.840;2023-06-22T04:02:59;30.50;59.60
19050;DHT22;9657;45.940;12.840;2023-06-22T04:05:26;30.40;59.50
19050;DHT22;9657;45.940;12.840;2023-06-22T04:07:54;30.40;59.50
19050;DHT22;9657;45.940;12.840;2023-06-22T04:10:21;30.40;59.60
19050;DHT22;9657;45.940;12.840;2023-06-22T04:12:48;30.50;59.70
19050;DHT22;9657;45.940;12.840;2023-06-22T04:15:15;30.40;59.60
19050;DHT22;9657;45.940;12.840;2023-06-22T04:17:42;30.40;59.60
19050;DHT22;9657;45.940;12.840;2023-06-22T04:20:11;30.40;59.60
19050;DHT22;9657;45.940;12.840;2023-06-22T04:22:38;30.50;59.70
19050;DHT22;9657;45.940;12.840;2023-06-22T04:25:06;30.40;59.60
19050;DHT22;9657;45.940;12.840;2023-06-22T04:27:33;30.50;59.70
19050;DHT22;9657;45.940;12.840;2023-06-22T04:30:03;30.40;59.60
19050;DHT22;9657;45.940;12.840;2023-06-22T04:32:30;30.40;59.60
19050;DHT22;9657;45.940;12.840;2023-06-22T04:34:57;30.40;59.60
19050;DHT22;9657;45.940;12.840;2023-06-22T04:37:27;30.40;59.60
19050;DHT22;9657;45.940;12.840;2023-06-22T04:39:54;30.40;59.60
19050;DHT22;9657;45.940;12.840;2023-06-22T04:42:21;30.40;59.70
19050;DHT22;9657;45.940;12.840;2023-06-22T04:44:48;30.40;59.70
19050;DHT22;9657;45.940;12.840;2023-06-22T04:47:15;30.40;59.60
19050;DHT22;9657;45.940;12.840;2023-06-22T04:49:42;30.40;59.60
19050;DHT22;9657;45.940;12.840;2023-06-22T04:52:11;30.40;59.60
19050;DHT22;9657;45.940;12.840;2023-06-22T04:54:41;30.40;59.60
19050;DHT22;9657;45.940;12.840;2023-06-22T04:57:13;30.40;59.70
19050;DHT22;9657;45.940;12.840;2023-06-22T04:59:41;30.40;59.70
19050;DHT22;9657;45.940;12.840;2023-06-22T05:02:09;30.40;59.70
19050;DHT22;9657;45.940;12.840;2023-06-22T05:04:36;30.40;59.70
19050;DHT22;9657;45.940;12.840;2023-06-22T05:07:04;30.40;59.70
19050;DHT22;9657;45.940;12.840;2023-06-22T05:09:31;30.40;59.70
19050;DHT22;9657;45.940;12.840;2023-06-22T05:12:01;30.40;59.80
19050;DHT22;9657;45.940;12.840;2023-06-22T05:14:30;30.40;59.70
19050;DHT22;9657;45.940;12.840;2023-06-22T05:16:57;30.40;59.70
19050;DHT22;9657;45.940;12.840;2023-06-22T05:19:29;30.40;59.70
19050;DHT22;9657;45.940;12.840;2023-06-22T05:21:58;30.40;59.80
19050;DHT22;9657;45.940;12.840;2023-06-22T05:24:25;30.40;59.80
19050;DHT22;9657;45.940;12.840;2023-06-22T05:26:52;30.40;59.80
19050;DHT22;9657;45.940;12.840;2023-06-22T05:29:21;30.40;59.80
19050;DHT22;9657;45.940;12.840;2023-06-22T05:31:49;30.40;59.80
19050;DHT22;9657;45.940;12.840;2023-06-22T05:34:16;30.40;59.90
19050;DHT22;9657;45.940;12.840;2023-06-22T05:36:43;30.40;59.90
19050;DHT22;9657;45.940;12.840;2023-06-22T05:39:13;30.40;59.90
19050;DHT22;9657;45.940;12.840;2023-06-22T05:41:41;30.40;59.90
19050;DHT22;9657;45.940;12.840;2023-06-22T05:44:09;30.40;59.90
19050;DHT22;9657;45.940;12.840;2023-06-22T05:46:42;30.40;59.90
19050;DHT22;9657;45.940;12.840;2023-06-22T05:49:10;30.40;59.90
19050;DHT22;9657;45.940;12.840;2023-06-22T05:51:37;30.40;59.90
19050;DHT22;9657;45.940;12.840;2023-06-22T05:54:04;30.40;59.90
19050;DHT22;9657;45.940;12.840;2023-06-22T05:56:31;30.40;59.90
19050;DHT22;9657;45.940;12.840;2023-06-22T05:58:58;30.40;60.00
19050;DHT22;9657;45.940;12.840;2023-06-22T06:01:25;30.40;60.00
19050;DHT22;9657;45.940;12.840;2023-06-22T06:03:54;30.40;60.00
19050;DHT22;9657;45.940;12.840;2023-06-22T06:06:21;30.40;60.00
19050;DHT22;9657;45.940;12.840;2023-06-22T06:08:54;30.40;60.00
19050;DHT22;9657;45.940;12.840;2023-06-22T06:11:21;30.40;60.00
19050;DHT22;9657;45.940;12.840;2023-06-22T06:13:48;30.40;60.00
19050;DHT22;9657;45.940;12.840;2023-06-22T06:16:15;30.40;60.00
19050;DHT22;9657;45.940;12.840;2023-06-22T06:18:42;30.40;60.00
19050;DHT22;9657;45.940;12.840;2023-06-22T06:21:11;30.40;60.10
19050;DHT22;9657;45.940;12.840;2023-06-22T06:23:38;30.40;60.10
19050;DHT22;9657;45.940;12.840;2023-06-22T06:26:05;30.40;60.10
19050;DHT22;9657;45.940;12.840;2023-06-22T06:28:32;30.40;60.10
19050;DHT22;9657;45.940;12.840;2023-06-22T06:31:00;30.40;60.10
19050;DHT22;9657;45.940;12.840;2023-06-22T06:33:27;30.40;60.10
19050;DHT22;9657;45.940;12.840;2023-06-22T06:35:54;30.40;60.10
19050;DHT22;9657;45.940;12.840;2023-06-22T06:38:23;30.40;60.10
19050;DHT22;9657;45.940;12.840;2023-06-22T06:40:50;30.40;60.10
19050;DHT22;9657;45.940;12.840;2023-06-22T06:43:17;30.40;60.10
19050;DHT22;9657;45.940;12.840;2023-06-22T06:45:44;30.40;60.10
19050;DHT22;9657;45.940;12.840;2023-06-22T06:48:11;30.40;60.10
19050;DHT22;9657;45.940;12.840;2023-06-22T06:50:38;30.40;60.10
19050;DHT22;9657;45.940;12.840;2023-06-22T06:53:05;30.40;60.10
19050;DHT22;9657;45.940;12.840;2023-06-22T06:55:33;30.40;60.10
19050;DHT22;9657;45.940;12.840;2023-06-22T06:58:01;30.40;60.10
19050;DHT22;9657;45.940;12.840;2023-06-22T07:00:29;30.40;60.10
19050;DHT22;9657;45.940;12.840;2023-06-22T07:02:56;30.40;60.10
19050;DHT22;9657;45.940;12.840;2023-06-22T07:05:23;30.40;60.10
19050;DHT22;9657;45.940;12.840;2023-06-22T07:07:50;30.40;60.10
19050;DHT22;9657;45.940;12.840;2023-06-22T07:10:19;30.40;60.10
19050;DHT22;9657;45.940;12.840;2023-06-22T07:12:47;30.40;60.10
19050;DHT22;9657;45.940;12.840;2023-06-22T07:15:14;30.40;60.00
19050;DHT22;9657;45.940;12.840;2023-06-22T07:17:41;30.40;60.10
19050;DHT22;9657;45.940;12.840;2023-06-22T07:20:09;30.40;60.00
19050;DHT22;9657;45.940;12.840;2023-06-22T07:22:37;30.40;60.00
19050;DHT22;9657;45.940;12.840;2023-06-22T07:25:06;30.40;60.10
19050;DHT22;9657;45.940;12.840;2023-06-22T07:27:36;30.40;60.00
19050;DHT22;9657;45.940;12.840;2023-06-22T07:30:08;30.40;60.10
19050;DHT22;9657;45.940;12.840;2023-06-22T07:32:35;30.40;60.00
19050;DHT22;9657;45.940;12.840;2023-06-22T07:35:03;30.40;60.00
19050;DHT22;9657;45.940;12.840;2023-06-22T07:37:30;30.40;60.00
19050;DHT22;9657;45.940;12.840;2023-06-22T07:39:58;30.40;60.00
19050;DHT22;9657;45.940;12.840;2023-06-22T07:42:26;30.40;60.80
19050;DHT22;9657;45.940;12.840;2023-06-22T07:44:53;30.40;60.00
19050;DHT22;9657;45.940;12.840;2023-06-22T07:47:23;30.40;60.00
19050;DHT22;9657;45.940;12.840;2023-06-22T07:49:53;30.40;60.00
19050;DHT22;9657;45.940;12.840;2023-06-22T07:52:23;30.40;60.00
19050;DHT22;9657;45.940;12.840;2023-06-22T07:54:51;30.40;60.00
19050;DHT22;9657;45.940;12.840;2023-06-22T07:57:18;30.40;60.00
19050;DHT22;9657;45.940;12.840;2023-06-22T07:59:45;30.40;60.00
19050;DHT22;9657;45.940;12.840;2023-06-22T08:02:12;30.40;60.00
19050;DHT22;9657;45.940;12.840;2023-06-22T08:04:41;30.40;59.90
19050;DHT22;9657;45.940;12.840;2023-06-22T08:07:08;30.40;60.00
19050;DHT22;9657;45.940;12.840;2023-06-22T08:09:36;30.50;60.00
19050;DHT22;9657;45.940;12.840;2023-06-22T08:12:03;30.40;59.90
19050;DHT22;9657;45.940;12.840;2023-06-22T08:14:30;30.50;60.00
19050;DHT22;9657;45.940;12.840;2023-06-22T08:16:57;30.40;59.90
19050;DHT22;9657;45.940;12.840;2023-06-22T08:19:24;30.40;59.90
19050;DHT22;9657;45.940;12.840;2023-06-22T08:21:53;30.40;59.90
19050;DHT22;9657;45.940;12.840;2023-06-22T08:24:20;30.40;59.90
19050;DHT22;9657;45.940;12.840;2023-06-22T08:26:47;30.50;59.90
19050;DHT22;9657;45.940;12.840;2023-06-22T08:29:14;30.50;59.90
19050;DHT22;9657;45.940;12.840;2023-06-22T08:31:41;30.50;59.90
19050;DHT22;9657;45.940;12.840;2023-06-22T08:34:08;30.50;59.90
19050;DHT22;9657;45.940;12.840;2023-06-22T08:36:35;30.50;59.90
19050;DHT22;9657;45.940;12.840;2023-06-22T08:39:08;30.50;59.80
19050;DHT22;9657;45.940;12.840;2023-06-22T08:41:35;30.50;59.80
19050;DHT22;9657;45.940;12.840;2023-06-22T08:44:02;30.50;59.80
19050;DHT22;9657;45.940;12.840;2023-06-22T08:46:29;30.50;59.80
19050;DHT22;9657;45.940;12.840;2023-06-22T08:48:59;30.50;59.80
19050;DHT22;9657;45.940;12.840;2023-06-22T08:51:26;30.50;59.80
19050;DHT22;9657;45.940;12.840;2023-06-22T08:53:54;30.50;59.80
19050;DHT22;9657;45.940;12.840;2023-06-22T08:56:22;30.50;59.70
19050;DHT22;9657;45.940;12.840;2023-06-22T08:58:49;30.60;59.80
19050;DHT22;9657;45.940;12.840;2023-06-22T09:01:16;30.50;59.70
19050;DHT22;9657;45.940;12.840;2023-06-22T09:03:44;30.60;59.70
19050;DHT22;9657;45.940;12.840;2023-06-22T09:06:19;30.60;59.70
19050;DHT22;9657;45.940;12.840;2023-06-22T09:08:47;30.60;59.60
19050;DHT22;9657;45.940;12.840;2023-06-22T09:11:14;30.60;59.60
19050;DHT22;9657;45.940;12.840;2023-06-22T09:13:43;30.60;59.50
19050;DHT22;9657;45.940;12.840;2023-06-22T09:16:12;30.60;59.50
19050;DHT22;9657;45.940;12.840;2023-06-22T09:18:39;30.60;59.40
19050;DHT22;9657;45.940;12.840;2023-06-22T09:21:06;30.60;59.40
19050;DHT22;9657;45.940;12.840;2023-06-22T09:23:34;30.70;59.50
19050;DHT22;9657;45.940;12.840;2023-06-22T09:26:01;30.70;59.50
19050;DHT22;9657;45.940;12.840;2023-06-22T09:28:29;30.70;59.50
19050;DHT22;9657;45.940;12.840;2023-06-22T09:30:58;30.70;59.40
19050;DHT22;9657;45.940;12.840;2023-06-22T09:33:25;30.70;59.40
19050;DHT22;9657;45.940;12.840;2023-06-22T09:35:52;30.70;59.30
19050;DHT22;9657;45.940;12.840;2023-06-22T09:38:19;30.70;59.30
19050;DHT22;9657;45.940;12.840;2023-06-22T09:40:46;30.70;59.30
19050;DHT22;9657;45.940;12.840;2023-06-22T09:43:13;30.70;59.20
19050;DHT22;9657;45.940;12.840;2023-06-22T09:45:40;30.70;59.20
19050;DHT22;9657;45.940;12.840;2023-06-22T09:48:09;30.80;59.10
19050;DHT22;9657;45.940;12.840;2023-06-22T09:50:36;30.80;59.10
19050;DHT22;9657;45.940;12.840;2023-06-22T09:53:03;30.80;59.00
19050;DHT22;9657;45.940;12.840;2023-06-22T09:55:30;30.80;59.70
19050;DHT22;9657;45.940;12.840;2023-06-22T09:57:57;30.80;58.90
19050;DHT22;9657;45.940;12.840;2023-06-22T10:00:24;30.80;58.90
19050;DHT22;9657;45.940;12.840;2023-06-22T10:02:52;30.80;58.90
19050;DHT22;9657;45.940;12.840;2023-06-22T10:05:21;30.80;58.80
19050;DHT22;9657;45.940;12.840;2023-06-22T10:07:48;30.80;58.80
19050;DHT22;9657;45.940;12.840;2023-06-22T10:10:15;30.80;58.80
19050;DHT22;9657;45.940;12.840;2023-06-22T10:12:45;30.80;58.60
19050;DHT22;9657;45.940;12.840;2023-06-22T10:15:12;30.80;58.50
19050;DHT22;9657;45.940;12.840;2023-06-22T10:17:39;30.80;58.50
19050;DHT22;9657;45.940;12.840;2023-06-22T10:20:07;30.80;58.30
19050;DHT22;9657;45.940;12.840;2023-06-22T10:22:40;30.90;58.30
19050;DHT22;9657;45.940;12.840;2023-06-22T10:25:08;30.80;58.00
19050;DHT22;9657;45.940;12.840;2023-06-22T10:27:35;30.90;58.20
19050;DHT22;9657;45.940;12.840;2023-06-22T10:30:06;30.90;58.20
19050;DHT22;9657;45.940;12.840;2023-06-22T10:32:33;30.90;58.30
19050;DHT22;9657;45.940;12.840;2023-06-22T10:35:00;30.90;58.20
19050;DHT22;9657;45.940;12.840;2023-06-22T10:37:27;30.90;58.10
19050;DHT22;9657;45.940;12.840;2023-06-22T10:39:56;30.90;58.00
19050;DHT22;9657;45.940;12.840;2023-06-22T10:42:23;30.90;57.80
19050;DHT22;9657;45.940;12.840;2023-06-22T10:44:50;30.90;57.70
19050;DHT22;9657;45.940;12.840;2023-06-22T10:47:17;30.90;57.80
19050;DHT22;9657;45.940;12.840;2023-06-22T10:49:44;30.90;57.90
19050;DHT22;9657;45.940;12.840;2023-06-22T10:52:11;30.90;57.90
19050;DHT22;9657;45.940;12.840;2023-06-22T10:54:38;30.90;58.00
19050;DHT22;9657;45.940;12.840;2023-06-22T10:57:07;30.90;57.80
19050;DHT22;9657;45.940;12.840;2023-06-22T10:59:34;30.90;57.80
19050;DHT22;9657;45.940;12.840;2023-06-22T11:02:01;30.90;57.70
19050;DHT22;9657;45.940;12.840;2023-06-22T11:04:28;31.00;58.00
19050;DHT22;9657;45.940;12.840;2023-06-22T11:06:55;31.00;57.90
19050;DHT22;9657;45.940;12.840;2023-06-22T11:09:23;31.00;57.90
19050;DHT22;9657;45.940;12.840;2023-06-22T11:11:51;31.00;57.80
19050;DHT22;9657;45.940;12.840;2023-06-22T11:14:20;31.00;57.80
19050;DHT22;9657;45.940;12.840;2023-06-22T11:16:48;31.00;57.90
19050;DHT22;9657;45.940;12.840;2023-06-22T11:19:15;31.00;57.70
19050;DHT22;9657;45.940;12.840;2023-06-22T11:21:42;31.00;57.80
19050;DHT22;9657;45.940;12.840;2023-06-22T11:24:09;31.00;57.90
19050;DHT22;9657;45.940;12.840;2023-06-22T11:26:36;31.00;58.00
19050;DHT22;9657;45.940;12.840;2023-06-22T11:29:03;31.00;58.00
19050;DHT22;9657;45.940;12.840;2023-06-22T11:31:32;31.00;58.00
19050;DHT22;9657;45.940;12.840;2023-06-22T11:33:59;31.00;57.90
19050;DHT22;9657;45.940;12.840;2023-06-22T11:36:26;31.00;57.80
19050;DHT22;9657;45.940;12.840;2023-06-22T11:38:54;31.00;57.90
19050;DHT22;9657;45.940;12.840;2023-06-22T11:41:21;31.00;58.00
19050;DHT22;9657;45.940;12.840;2023-06-22T11:43:48;31.00;58.00
19050;DHT22;9657;45.940;12.840;2023-06-22T11:46:15;31.00;57.90
19050;DHT22;9657;45.940;12.840;2023-06-22T11:48:44;31.10;57.90
19050;DHT22;9657;45.940;12.840;2023-06-22T11:51:11;31.10;57.60
19050;DHT22;9657;45.940;12.840;2023-06-22T11:53:38;31.10;57.50
19050;DHT22;9657;45.940;12.840;2023-06-22T11:56:05;31.10;57.30
19050;DHT22;9657;45.940;12.840;2023-06-22T11:58:32;31.10;57.30
19050;DHT22;9657;45.940;12.840;2023-06-22T12:00:59;31.10;57.50
19050;DHT22;9657;45.940;12.840;2023-06-22T12:03:26;31.10;57.40
19050;DHT22;9657;45.940;12.840;2023-06-22T12:05:54;31.10;57.30
19050;DHT22;9657;45.940;12.840;2023-06-22T12:08:21;31.10;57.20
19050;DHT22;9657;45.940;12.840;2023-06-22T12:10:49;31.10;57.30
19050;DHT22;9657;45.940;12.840;2023-06-22T12:13:17;31.10;57.30
19050;DHT22;9657;45.940;12.840;2023-06-22T12:15:44;31.20;57.50
19050;DHT22;9657;45.940;12.840;2023-06-22T12:18:11;31.20;57.60
19050;DHT22;9657;45.940;12.840;2023-06-22T12:20:40;31.20;57.90
19050;DHT22;9657;45.940;12.840;2023-06-22T12:23:08;31.20;58.00
19050;DHT22;9657;45.940;12.840;2023-06-22T12:25:35;31.20;58.00
19050;DHT22;9657;45.940;12.840;2023-06-22T12:28:02;31.20;58.20
19050;DHT22;9657;45.940;12.840;2023-06-22T12:30:30;31.20;58.40
19050;DHT22;9657;45.940;12.840;2023-06-22T12:32:57;31.20;58.10
19050;DHT22;9657;45.940;12.840;2023-06-22T12:35:24;31.20;57.80
19050;DHT22;9657;45.940;12.840;2023-06-22T12:37:51;31.20;57.40
19050;DHT22;9657;45.940;12.840;2023-06-22T12:40:19;31.20;57.60
19050;DHT22;9657;45.940;12.840;2023-06-22T12:42:46;31.20;58.40
19050;DHT22;9657;45.940;12.840;2023-06-22T12:45:15;31.30;57.90
19050;DHT22;9657;45.940;12.840;2023-06-22T12:47:42;31.20;57.70
19050;DHT22;9657;45.940;12.840;2023-06-22T12:50:09;31.30;57.90
19050;DHT22;9657;45.940;12.840;2023-06-22T12:52:36;31.20;57.90
19050;DHT22;9657;45.940;12.840;2023-06-22T12:55:05;31.20;57.90
19050;DHT22;9657;45.940;12.840;2023-06-22T12:57:34;31.30;57.90
19050;DHT22;9657;45.940;12.840;2023-06-22T13:00:01;31.30;58.00
19050;DHT22;9657;45.940;12.840;2023-06-22T13:02:30;31.30;57.60
19050;DHT22;9657;45.940;12.840;2023-06-22T13:04:57;31.30;57.30
19050;DHT22;9657;45.940;12.840;2023-06-22T13:07:24;31.30;57.00
19050;DHT22;9657;45.940;12.840;2023-06-22T13:09:51;31.30;57.30
19050;DHT22;9657;45.940;12.840;2023-06-22T13:12:19;31.30;57.40
19050;DHT22;9657;45.940;12.840;2023-06-22T13:14:47;31.30;57.70
19050;DHT22;9657;45.940;12.840;2023-06-22T13:17:14;31.30;58.20
19050;DHT22;9657;45.940;12.840;2023-06-22T13:19:41;31.30;57.40
19050;DHT22;9657;45.940;12.840;2023-06-22T13:22:26;31.30;57.40
19050;DHT22;9657;45.940;12.840;2023-06-22T13:24:54;31.30;57.50
19050;DHT22;9657;45.940;12.840;2023-06-22T13:27:21;31.30;57.20
19050;DHT22;9657;45.940;12.840;2023-06-22T13:29:50;31.30;57.20
19050;DHT22;9657;45.940;12.840;2023-06-22T13:32:17;31.40;57.20
19050;DHT22;9657;45.940;12.840;2023-06-22T13:34:44;31.30;57.20
19050;DHT22;9657;45.940;12.840;2023-06-22T13:37:11;31.30;57.00
19050;DHT22;9657;45.940;12.840;2023-06-22T13:39:38;31.40;57.10
19050;DHT22;9657;45.940;12.840;2023-06-22T13:42:06;31.40;57.20
19050;DHT22;9657;45.940;12.840;2023-06-22T13:44:33;31.40;57.30
19050;DHT22;9657;45.940;12.840;2023-06-22T13:47:01;31.40;57.40
19050;DHT22;9657;45.940;12.840;2023-06-22T13:49:30;31.40;57.70
19050;DHT22;9657;45.940;12.840;2023-06-22T13:51:57;31.40;57.80
19050;DHT22;9657;45.940;12.840;2023-06-22T13:54:24;31.40;57.80
19050;DHT22;9657;45.940;12.840;2023-06-22T13:56:51;31.50;58.00
19050;DHT22;9657;45.940;12.840;2023-06-22T13:59:18;31.40;57.70
19050;DHT22;9657;45.940;12.840;2023-06-22T14:01:46;31.40;57.70
19050;DHT22;9657;45.940;12.840;2023-06-22T14:04:14;31.50;57.80
19050;DHT22;9657;45.940;12.840;2023-06-22T14:06:41;31.50;57.90
19050;DHT22;9657;45.940;12.840;2023-06-22T14:09:08;31.50;58.00
19050;DHT22;9657;45.940;12.840;2023-06-22T14:11:36;31.50;57.90
19050;DHT22;9657;45.940;12.840;2023-06-22T14:14:03;31.50;57.90
19050;DHT22;9657;45.940;12.840;2023-06-22T14:16:30;31.50;58.00
19050;DHT22;9657;45.940;12.840;2023-06-22T14:18:57;31.50;58.00
19050;DHT22;9657;45.940;12.840;2023-06-22T14:21:26;31.50;57.90
19050;DHT22;9657;45.940;12.840;2023-06-22T14:23:53;31.50;57.90
19050;DHT22;9657;45.940;12.840;2023-06-22T14:26:20;31.50;58.00
19050;DHT22;9657;45.940;12.840;2023-06-22T14:28:48;31.50;58.00
19050;DHT22;9657;45.940;12.840;2023-06-22T14:31:16;31.50;58.00
19050;DHT22;9657;45.940;12.840;2023-06-22T14:33:46;31.50;58.10
19050;DHT22;9657;45.940;12.840;2023-06-22T14:36:14;31.50;58.10
19050;DHT22;9657;45.940;12.840;2023-06-22T14:38:42;31.60;58.20
19050;DHT22;9657;45.940;12.840;2023-06-22T14:41:09;31.60;58.30
19050;DHT22;9657;45.940;12.840;2023-06-22T14:43:36;31.50;58.20
19050;DHT22;9657;45.940;12.840;2023-06-22T14:46:03;31.60;58.20
19050;DHT22;9657;45.940;12.840;2023-06-22T14:48:30;31.60;58.20
19050;DHT22;9657;45.940;12.840;2023-06-22T14:50:57;31.60;58.10
19050;DHT22;9657;45.940;12.840;2023-06-22T14:53:25;31.60;58.00
19050;DHT22;9657;45.940;12.840;2023-06-22T14:55:54;31.60;57.70
19050;DHT22;9657;45.940;12.840;2023-06-22T14:58:21;31.60;57.80
19050;DHT22;9657;45.940;12.840;2023-06-22T15:00:48;31.60;57.80
19050;DHT22;9657;45.940;12.840;2023-06-22T15:03:15;31.60;57.60
19050;DHT22;9657;45.940;12.840;2023-06-22T15:05:47;31.60;57.60
19050;DHT22;9657;45.940;12.840;2023-06-22T15:08:14;31.60;57.60
19050;DHT22;9657;45.940;12.840;2023-06-22T15:10:41;31.60;58.10
19050;DHT22;9657;45.940;12.840;2023-06-22T15:13:10;31.60;57.60
19050;DHT22;9657;45.940;12.840;2023-06-22T15:15:37;31.60;57.60
19050;DHT22;9657;45.940;12.840;2023-06-22T15:18:04;31.60;57.50
19050;DHT22;9657;45.940;12.840;2023-06-22T15:20:31;31.60;57.10
19050;DHT22;9657;45.940;12.840;2023-06-22T15:22:58;31.60;57.00
19050;DHT22;9657;45.940;12.840;2023-06-22T15:25:25;31.60;57.00
19050;DHT22;9657;45.940;12.840;2023-06-22T15:27:52;31.60;56.70
19050;DHT22;9657;45.940;12.840;2023-06-22T15:30:21;31.60;56.80
19050;DHT22;9657;45.940;12.840;2023-06-22T15:32:49;31.70;57.10
19050;DHT22;9657;45.940;12.840;2023-06-22T15:35:16;31.60;57.30
19050;DHT22;9657;45.940;12.840;2023-06-22T15:37:44;31.70;57.40